Aviation Digital Data Service (ADDS)

Output produced by METARs form (0958 UTC 19 January 2019)
found at http://www.aviationweather.gov/metar/data/
 
WABB 190900Z 26007KT 9999 FEW018 BKN100 29/24 Q1007 NOSIG
TAF WABB 190500Z 1906/2012 26008KT 9999 SCT018 
     BECMG 1910/1912 32005KT
       
WAAA 190930Z 32005KT 300V010 9999 FEW018CB SCT019 30/25 Q1007 NOSIG
TAF WAAA 190500Z 1906/2012 20006KT 9999 SCT018 
     TEMPO 1908/1910 6000 -RA BKN018 
     BECMG 1910/1912 10004KT 8000 
     BECMG 2000/2002 30010KT
       
WAPP 190930Z 32012KT 9999 SCT020 29/23 Q1007 NOSIG
TAF WAPP 190500Z 1906/2006 33010KT 9999 SCT019
       
WIMM 190900Z 36009KT 340V050 8000 SCT017 29/25 Q1007 NOSIG
TAF WIMM 190500Z 1906/2006 30010KT 8000 BKN017 
     BECMG 1911/1913 VRB03KT 4500 HZ FEW016CB SCT018 
     TEMPO 1920/2000 -TSRA
       
WAMM 190930Z 36004KT 9999 FEW021 28/23 Q1009 NOSIG
TAF WAMM 190500Z 1906/2012 34005KT 9999 SCT021 
     BECMG 1906/1908 05005KT 
     PROB30 
     TEMPO 1912/1916 6000 -RA FEW017CB SCT018
       
WAJJ 190900Z 17003KT 5000 TS FEW011CB SCT012 28/25 Q1006 NOSIG
WIII 190930Z 32005KT 9000 FEW020 28/23 Q1006 NOSIG
TAF WIII 190500Z 1906/2012 32010KT 7000 SCT020 
     TEMPO 1908/1911 4000 -TSRA FEW015CB BKN019 
     BECMG 1912/1914 25005KT
       
TAF WITT 190500Z 1906/2006 12006KT 9999 SCT017 
     BECMG 1908/1910 07006KT 8000 FEW016CB SCT017 
     BECMG 1920/1922 14005KT FEW019
       
WIPP 190930Z 36005KT 9999 SCT010 30/24 Q1006 NOSIG
TAF WIPP 190500Z 1906/2006 32011KT 9999 BKN010 
     TEMPO 1908/1912 5000 RA FEW012CB 
     BECMG 1913/1915 30006KT 3000 BR SCT012 
     BECMG 2000/2002 9999
       
WIBB 190930Z 36007KT 9000 SCT013 32/21 Q1006
WIOO 190930Z 33003KT 9999 BKN012 26/25 Q1006